sensor_id;sensor_type;location;lat;lon;timestamp;P1;durP1;ratioP1;P2;durP2;ratioP2
29314;SDS011;16320;53.954;9.506;2023-05-18T12:02:30;5.75;;;1.88;;
29314;SDS011;16320;53.954;9.506;2023-05-18T14:19:58;4.90;;;1.52;;
29314;SDS011;16320;53.954;9.506;2023-05-18T14:39:57;5.00;;;1.70;;
29314;SDS011;16320;53.954;9.506;2023-05-18T14:54:25;4.30;;;1.48;;
29314;SDS011;16320;53.954;9.506;2023-05-18T15:25:54;7.95;;;1.80;;
29314;SDS011;16320;53.954;9.506;2023-05-18T15:30:29;8.40;;;2.30;;
29314;SDS011;16320;53.954;9.506;2023-05-18T16:04:00;9.50;;;2.00;;
29314;SDS011;16320;53.954;9.506;2023-05-18T21:29:09;13.93;;;4.45;;
29314;SDS011;16320;53.954;9.506;2023-05-18T22:06:53;8.23;;;3.38;;
29314;SDS011;16320;53.954;9.506;2023-05-18T22:11:20;13.05;;;3.60;;
29314;SDS011;16320;53.954;9.506;2023-05-18T22:19:38;6.82;;;3.00;;
29314;SDS011;16320;53.954;9.506;2023-05-18T22:24:41;6.13;;;2.78;;
29314;SDS011;16320;53.954;9.506;2023-05-18T22:28:06;8.48;;;3.55;;
29314;SDS011;16320;53.954;9.506;2023-05-18T22:31:11;6.80;;;3.33;;
29314;SDS011;16320;53.954;9.506;2023-05-18T22:34:17;4.82;;;3.30;;
29314;SDS011;16320;53.954;9.506;2023-05-18T22:37:22;6.95;;;3.63;;
29314;SDS011;16320;53.954;9.506;2023-05-18T22:40:27;9.10;;;3.08;;
29314;SDS011;16320;53.954;9.506;2023-05-18T22:43:33;11.10;;;3.28;;
29314;SDS011;16320;53.954;9.506;2023-05-18T22:46:39;9.98;;;3.17;;
29314;SDS011;16320;53.954;9.506;2023-05-18T22:49:44;10.98;;;3.55;;
29314;SDS011;16320;53.954;9.506;2023-05-18T22:52:50;10.57;;;3.80;;
29314;SDS011;16320;53.954;9.506;2023-05-18T22:55:55;10.73;;;3.47;;
29314;SDS011;16320;53.954;9.506;2023-05-18T22:59:04;8.68;;;3.50;;
29314;SDS011;16320;53.954;9.506;2023-05-18T23:02:09;5.57;;;3.13;;
29314;SDS011;16320;53.954;9.506;2023-05-18T23:05:18;12.05;;;3.63;;
29314;SDS011;16320;53.954;9.506;2023-05-18T23:08:25;9.40;;;3.67;;
29314;SDS011;16320;53.954;9.506;2023-05-18T23:11:29;8.07;;;3.45;;
29314;SDS011;16320;53.954;9.506;2023-05-18T23:14:37;10.07;;;3.95;;
29314;SDS011;16320;53.954;9.506;2023-05-18T23:17:42;8.80;;;3.85;;
29314;SDS011;16320;53.954;9.506;2023-05-18T23:20:46;12.32;;;4.70;;
29314;SDS011;16320;53.954;9.506;2023-05-18T23:23:53;7.78;;;3.42;;
29314;SDS011;16320;53.954;9.506;2023-05-18T23:26:58;7.28;;;3.88;;
29314;SDS011;16320;53.954;9.506;2023-05-18T23:30:05;10.35;;;4.78;;
29314;SDS011;16320;53.954;9.506;2023-05-18T23:33:10;8.45;;;3.95;;
29314;SDS011;16320;53.954;9.506;2023-05-18T23:36:18;11.40;;;3.80;;
29314;SDS011;16320;53.954;9.506;2023-05-18T23:39:24;6.82;;;4.10;;
29314;SDS011;16320;53.954;9.506;2023-05-18T23:42:29;9.13;;;4.38;;
29314;SDS011;16320;53.954;9.506;2023-05-18T23:45:35;6.82;;;3.80;;
29314;SDS011;16320;53.954;9.506;2023-05-18T23:48:40;10.05;;;3.92;;
29314;SDS011;16320;53.954;9.506;2023-05-18T23:51:45;10.77;;;3.78;;
29314;SDS011;16320;53.954;9.506;2023-05-18T23:54:54;7.00;;;3.85;;
29314;SDS011;16320;53.954;9.506;2023-05-18T23:58:01;8.18;;;4.28;;
